Arcadia — ZCDN9 — position and weather

sailwx.info

Track history (hours):
 
Tides and Currents Weather Stations Pressure Air Temp Water Temp Dewpoint Dewpoint Depression Visibility Wind Speed Wind Dir Waves Ship Positions

Arcadia

Last reported at 2017-Nov-24 22:00 UTC. Time now 2017-Nov-25 00:14 UTC.
Position N 36°24' W 006°36'.

Length 285.1 m; beam 32.2 m; draft 8 m.

Type: Passenger vessel. MMSI: 310473000.

Wind from 140 at 15 knots

Barometer 1020.1 mb
Air temperature 19.0 ° C
Visibility: greater than 10.8 NM
Dewpoint 11.8 ° C
Water temperature 18.5 ° C

Date/timePositionNaut miles runAvg speedWind from/ knotsBaromVisibWave heightAir tempDewpointWater temp
2017-Nov-24 22:00N 36°24' W 006°36'13 7.5 140 / 151020.110.8 19.011.818.5
2017-Nov-24 20:16N 36°32' W 006°24'5 9.7
2017-Nov-24 19:47N 36°33' W 006°18'1 5.1
2017-Nov-24 19:30N 36°32' W 006°17'0 0.2
2017-Nov-24 18:10N 36°32' W 006°17'0 0.0
2017-Nov-24 16:19N 36°32' W 006°17'0 0.0
2017-Nov-24 15:52N 36°32' W 006°17'2 0.2
2017-Nov-24 05:53N 36°34' W 006°19'510.7
2017-Nov-24 05:27N 36°32' W 006°24'613.6
2017-Nov-24 04:59N 36°32' W 006°32'2413.2
2017-Nov-24 03:12N 36°31' W 007°01'313.3
2017-Nov-24 03:00N 36°31' W 007°04'4258.5
2017-Nov-24 03:00N 36°30' W 007°00'1020.9 160 / 201018.910.8 20.014.920.4
2017-Nov-24 02:30N 36°31' W 007°13'813.6
2017-Nov-24 01:53N 36°31' W 007°23'514.3
2017-Nov-24 01:30N 36°31' W 007°30'1214.4
2017-Nov-24 00:42N 36°31' W 007°44'314.5
2017-Nov-24 00:29N 36°31' W 007°48'1214.6
2017-Nov-23 23:41N 36°31' W 008°03'414.4
2017-Nov-23 23:25N 36°30' W 008°07'814.3
2017-Nov-23 22:52N 36°30' W 008°17'513.9
2017-Nov-23 22:31N 36°30' W 008°23'813.8
2017-Nov-23 21:55N 36°31' W 008°33'614.0
2017-Nov-23 21:29N 36°31' W 008°41'714.4
2017-Nov-23 20:59N 36°30' W 008°50'714.1
2017-Nov-23 20:30N 36°30' W 008°58'3013.0
2017-Nov-23 18:10N 36°46' W 009°31'420.7
2017-Nov-23 18:00N 36°42' W 009°30'610747.7 220 / 201016.910.8 19.518.719.1
2017-Nov-23 17:59N 36°47' W 009°33'5813.0
2017-Nov-23 13:33N 37°44' W 009°49'112.5
2017-Nov-23 13:30N 37°44' W 009°50'1112.6
2017-Nov-23 12:36N 37°55' W 009°53'112.8
2017-Nov-23 12:30N 37°57' W 009°53'612.8
2017-Nov-23 12:01N 38°03' W 009°55'613.0
2017-Nov-23 11:31N 38°09' W 009°57'713.4
2017-Nov-23 11:00N 38°16' W 009°59'81005.9
2017-Nov-23 11:00N 38°24' W 010°00'2 3.8 160 / 261013.7 5.4 17.215.216.7
2017-Nov-23 10:31N 38°22' W 010°01'713.4
2017-Nov-23 10:01N 38°29' W 010°03'713.4
2017-Nov-23 09:31N 38°35' W 010°04'713.4
2017-Nov-23 09:00N 38°42' W 010°06'713.3
2017-Nov-23 08:30N 38°48' W 010°06'713.4
2017-Nov-23 08:01N 38°55' W 010°06'714.0
2017-Nov-23 07:30N 39°02' W 010°06'713.5
2017-Nov-23 07:00N 39°09' W 010°07'3212.0
2017-Nov-23 07:00N 39°12' W 010°06'4 7.8 230 / 201011.510.8 17.015.316.7
2017-Nov-23 06:30N 39°16' W 010°07'713.3
2017-Nov-23 06:00N 39°22' W 010°07'11616.5
2017-Nov-22 23:00N 41°12' W 009°18'119 6.0 180 / 351007.8 5.4 16.014.315.3
2017-Nov-22 03:00N 43°06' W 010°06'8922.3 180 / 351008.910.8 16.113.315.5
2017-Nov-21 23:00N 44°24' W 009°06'7615.3 200 / 351010.110.8 15.3 9.515.8
2017-Nov-21 18:00N 45°30' W 008°12'20818.9 200 / 261013.310.8 15.3 9.515.8
2017-Nov-21 07:00N 48°24' W 005°24'7719.3 210 / 201015.410.8 13.0 9.112.9
2017-Nov-21 03:00N 49°18' W 004°00'7819.6 250 / 251015.910.8 13.4 7.514.1
2017-Nov-20 23:00N 50°00' W 002°18'25 1.1 270 / 261016.010.8 14.0 9.114.3
2017-Nov-20 00:31N 50°18' W 001°52'812.2
2017-Nov-19 23:49N 50°15' W 002°04'311.0
2017-Nov-19 23:31N 50°11' W 002°03'611.1
2017-Nov-19 23:00N 50°07' W 001°58'611.8
2017-Nov-19 22:29N 50°01' W 001°57'612.4
2017-Nov-19 22:00N 49°58' W 002°05'714.4
2017-Nov-19 21:30N 49°56' W 002°16'714.3
2017-Nov-19 21:00N 49°54' W 002°27'1014.0
2017-Nov-19 20:17N 49°51' W 002°41'413.8
2017-Nov-19 20:00N 49°50' W 002°47'714.5
2017-Nov-19 19:30N 49°47' W 002°57'815.0
2017-Nov-19 19:00N 49°42' W 003°06'8693.1
2017-Nov-19 19:00N 49°42' W 002°54'1530.9 160 / 151024.310.8 13.0 9.114.1
2017-Nov-19 18:30N 49°38' W 003°16'916.6
2017-Nov-19 17:56N 49°32' W 003°28'916.6
2017-Nov-19 17:22N 49°26' W 003°40'616.7
2017-Nov-19 17:00N 49°23' W 003°47'1616.2
2017-Nov-19 16:00N 49°12' W 004°06'1616.8 290 / 131024.310.8 12.911.012.3
2017-Nov-19 15:03N 49°03' W 004°26'116.1
2017-Nov-19 15:00N 49°02' W 004°27'916.2
2017-Nov-19 14:28N 48°57' W 004°37'716.1
2017-Nov-19 14:00N 48°53' W 004°46'815.8
2017-Nov-19 13:30N 48°48' W 004°56'815.5
2017-Nov-19 13:00N 48°43' W 005°05'815.2
2017-Nov-19 12:30N 48°38' W 005°14'714.7
2017-Nov-19 12:00N 48°33' W 005°21'714.3
2017-Nov-19 11:30N 48°27' W 005°28'715.0
2017-Nov-19 11:01N 48°21' W 005°33'814.9
2017-Nov-19 10:27N 48°14' W 005°40'714.9
2017-Nov-19 10:00N 48°08' W 005°44'714.8
2017-Nov-19 09:30N 48°01' W 005°50'814.9
2017-Nov-19 08:59N 47°55' W 005°56'714.9
2017-Nov-19 08:30N 47°48' W 006°01'612.7
2017-Nov-19 08:00N 47°42' W 006°00'650.5 1027.110.8 12.0 7.913.8
2017-Nov-19 07:53N 47°40' W 006°08'614.8
2017-Nov-19 07:30N 47°36' W 006°12'815.0
2017-Nov-19 07:00N 47°29' W 006°18'815.6
2017-Nov-19 06:29N 47°22' W 006°24'816.6
2017-Nov-19 06:00N 47°15' W 006°30'1116.1
2017-Nov-19 05:17N 47°05' W 006°38'516.2
2017-Nov-19 05:00N 47°01' W 006°41'816.3
2017-Nov-19 04:29N 46°54' W 006°48'815.7
2017-Nov-19 04:00N 46°47' W 006°53'915.5
2017-Nov-19 03:24N 46°39' W 006°60'1315.5
2017-Nov-19 02:35N 46°28' W 007°09'4412.3
2017-Nov-18 23:00N 45°48' W 007°36'7619.0 090 / 201026.210.8 14.0 8.015.3
2017-Nov-18 19:00N 44°42' W 008°30'10414.8 100 / 321023.910.8 14.3 7.916.0
2017-Nov-18 12:00N 43°12' W 009°42'6015.0 090 / 301021.510.8 14.5 9.715.6
2017-Nov-18 08:00N 42°12' W 009°48'6216.2 090 / 171020.510.8 14.511.716.4
2017-Nov-18 04:09N 41°10' W 009°50'317.8
2017-Nov-18 04:00N 41°07' W 009°50'71745.6
2017-Nov-18 04:00N 41°00' W 009°48'2113.4 050 / 81019.910.8 15.012.817.1
2017-Nov-18 02:24N 40°39' W 009°51'2318.3
2017-Nov-18 01:10N 40°16' W 009°51'418.4
2017-Nov-18 00:57N 40°12' W 009°51'1717.5
2017-Nov-17 23:58N 39°55' W 009°52'1215.9
2017-Nov-17 23:11N 39°43' W 009°52'630.4
2017-Nov-17 23:00N 39°48' W 009°48'1184.4 1020.7 5.4 15.512.814.6
2017-Nov-17 22:52N 39°37' W 009°52'915.7
2017-Nov-17 22:17N 39°28' W 009°51'515.4
2017-Nov-17 22:00N 39°24' W 009°50'815.8
2017-Nov-17 21:30N 39°16' W 009°48'815.8
2017-Nov-17 21:00N 39°09' W 009°47'815.6
2017-Nov-17 20:30N 39°01' W 009°45'815.9
2017-Nov-17 20:00N 38°53' W 009°43'815.6
2017-Nov-17 19:30N 38°45' W 009°42'815.1
2017-Nov-17 19:00N 38°38' W 009°40'715.0
2017-Nov-17 18:31N 38°37' W 009°31'714.1
2017-Nov-17 18:00N 38°38' W 009°22'815.1
2017-Nov-17 17:30N 38°41' W 009°13'5 9.7
2017-Nov-17 17:01N 38°42' W 009°07'0 0.6
2017-Nov-17 16:30N 38°43' W 009°07'0 0.0
2017-Nov-17 16:00N 38°43' W 009°07'0 0.0
2017-Nov-17 15:30N 38°43' W 009°07'0 0.0
2017-Nov-17 14:57N 38°43' W 009°07'0 0.0
2017-Nov-17 14:30N 38°43' W 009°07'0 0.0
2017-Nov-17 14:00N 38°43' W 009°07'0 0.0
2017-Nov-17 13:30N 38°43' W 009°07'0 0.0
2017-Nov-17 13:00N 38°43' W 009°07'0 0.0
2017-Nov-17 12:30N 38°43' W 009°07'0 0.0
2017-Nov-17 12:00N 38°43' W 009°07'0 0.0
2017-Nov-17 11:30N 38°43' W 009°07'0 0.0
2017-Nov-17 11:00N 38°43' W 009°07'0 0.0
2017-Nov-17 10:30N 38°43' W 009°07'0 0.0
2017-Nov-17 10:00N 38°43' W 009°07'0 0.0
2017-Nov-17 09:30N 38°43' W 009°07'0 0.0
2017-Nov-17 09:00N 38°43' W 009°07'0 0.0
2017-Nov-17 08:30N 38°43' W 009°07'0 0.0
2017-Nov-17 07:57N 38°43' W 009°07'0 0.9
2017-Nov-17 07:30N 38°42' W 009°08'5 9.4
2017-Nov-17 07:00N 38°41' W 009°13'4 8.4
2017-Nov-17 06:30N 38°40' W 009°19'4 8.4
2017-Nov-17 06:01N 38°37' W 009°22'611.7
2017-Nov-17 05:30N 38°32' W 009°26'612.0
2017-Nov-17 05:00N 38°26' W 009°29'713.5
2017-Nov-17 04:30N 38°20' W 009°31'714.0
2017-Nov-17 04:00N 38°13' W 009°34'4223.3
2017-Nov-17 04:00N 38°12' W 009°30'815.8 050 / 101019.310.8 15.9 9.617.1
2017-Nov-17 03:30N 38°07' W 009°37'713.8
2017-Nov-17 03:00N 38°00' W 009°40'713.8
2017-Nov-17 02:30N 37°54' W 009°43'713.8
2017-Nov-17 02:00N 37°47' W 009°45'815.7
2017-Nov-17 01:30N 37°40' W 009°49'917.4
2017-Nov-17 01:01N 37°32' W 009°52'917.6
2017-Nov-17 00:31N 37°23' W 009°56'917.5
2017-Nov-17 00:00N 37°15' W 009°59'9 8.7
2017-Nov-16 23:00N 37°06' W 010°00'8220.4 010 / 151021.110.8 17.010.519.0
2017-Nov-16 19:00N 35°48' W 010°30'5217.3 070 / 151020.610.8 18.013.619.9
2017-Nov-16 16:00N 35°00' W 010°54'8821.9 020 / 121017.810.8 19.014.720.9
2017-Nov-16 12:00N 33°36' W 011°24'5814.4 010 / 61020.310.8 20.013.020.8
2017-Nov-16 08:00N 32°42' W 011°48'7117.7 030 / 131019.610.8 19.013.821.2
2017-Nov-16 04:00N 31°36' W 012°18'7515.0 110 / 121016.810.8 19.513.421.0
2017-Nov-15 23:00N 30°24' W 012°42'7620.4 030 / 161018.6 19.511.420.2
2017-Nov-15 19:14N 29°13' W 013°14'729.2
2017-Nov-15 19:00N 29°06' W 013°12'6512.7 360 / 141017.610.8 20.013.021.7
2017-Nov-15 18:59N 29°09' W 013°17'817.6
2017-Nov-15 18:30N 29°03' W 013°24'915.9
2017-Nov-15 17:58N 28°57' W 013°31'1 0.1
2017-Nov-15 10:17N 28°58' W 013°32'0 0.0
2017-Nov-15 07:25N 28°58' W 013°32'1 1.6
2017-Nov-15 07:00N 28°57' W 013°32'5 9.7
2017-Nov-15 06:28N 28°53' W 013°36'713.3
2017-Nov-15 05:58N 28°50' W 013°42'612.3
2017-Nov-15 05:30N 28°48' W 013°49'1112.8
2017-Nov-15 04:37N 28°50' W 014°01'1710.3
2017-Nov-15 03:00N 28°42' W 014°18'3314.8 040 / 101017.110.8 20.513.622.1
2017-Nov-15 00:46N 28°43' W 014°56'312.2
2017-Nov-15 00:30N 28°42' W 014°59'612.3
2017-Nov-15 00:01N 28°41' W 015°06'612.5
2017-Nov-14 23:30N 28°40' W 015°13'612.4
2017-Nov-14 23:00N 28°39' W 015°20'8955.8
2017-Nov-14 23:00N 28°36' W 015°12'1327.6 050 / 201016.510.8 20.513.622.1
2017-Nov-14 22:30N 28°38' W 015°27'612.5
2017-Nov-14 22:00N 28°37' W 015°34'  
Track history (hours):
 
Tides and Currents Weather Stations Pressure Air Temp Water Temp Dewpoint Dewpoint Depression Visibility Wind Speed Wind Dir Waves Ship Positions

Arcadia

Last reported at 2017-Nov-24 22:00 UTC. Time now 2017-Nov-25 00:14 UTC.
Position N 36°24' W 006°36'.

Length 285.1 m; beam 32.2 m; draft 8 m.

Type: Passenger vessel. MMSI: 310473000.

Wind from 140 at 15 knots

Barometer 1020.1 mb
Air temperature 19.0 ° C
Visibility: greater than 10.8 NM
Dewpoint 11.8 ° C
Water temperature 18.5 ° C

Date/timePositionNaut miles runAvg speedWind from/ knotsBaromVisibWave heightAir tempDewpointWater temp
2017-Nov-24 22:00N 36°24' W 006°36'13 7.5 140 / 151020.110.8 19.011.818.5
2017-Nov-24 20:16N 36°32' W 006°24'5 9.7
2017-Nov-24 19:47N 36°33' W 006°18'1 5.1
2017-Nov-24 19:30N 36°32' W 006°17'0 0.2
2017-Nov-24 18:10N 36°32' W 006°17'0 0.0
2017-Nov-24 16:19N 36°32' W 006°17'0 0.0
2017-Nov-24 15:52N 36°32' W 006°17'2 0.2
2017-Nov-24 05:53N 36°34' W 006°19'510.7
2017-Nov-24 05:27N 36°32' W 006°24'613.6
2017-Nov-24 04:59N 36°32' W 006°32'2413.2
2017-Nov-24 03:12N 36°31' W 007°01'313.3
2017-Nov-24 03:00N 36°31' W 007°04'4258.5
2017-Nov-24 03:00N 36°30' W 007°00'1020.9 160 / 201018.910.8 20.014.920.4
2017-Nov-24 02:30N 36°31' W 007°13'813.6
2017-Nov-24 01:53N 36°31' W 007°23'514.3
2017-Nov-24 01:30N 36°31' W 007°30'1214.4
2017-Nov-24 00:42N 36°31' W 007°44'314.5
2017-Nov-24 00:29N 36°31' W 007°48'1214.6
2017-Nov-23 23:41N 36°31' W 008°03'414.4
2017-Nov-23 23:25N 36°30' W 008°07'814.3
2017-Nov-23 22:52N 36°30' W 008°17'513.9
2017-Nov-23 22:31N 36°30' W 008°23'813.8
2017-Nov-23 21:55N 36°31' W 008°33'614.0
2017-Nov-23 21:29N 36°31' W 008°41'714.4
2017-Nov-23 20:59N 36°30' W 008°50'714.1
2017-Nov-23 20:30N 36°30' W 008°58'3013.0
2017-Nov-23 18:10N 36°46' W 009°31'420.7
2017-Nov-23 18:00N 36°42' W 009°30'610747.7 220 / 201016.910.8 19.518.719.1
2017-Nov-23 17:59N 36°47' W 009°33'5813.0
2017-Nov-23 13:33N 37°44' W 009°49'112.5
2017-Nov-23 13:30N 37°44' W 009°50'1112.6
2017-Nov-23 12:36N 37°55' W 009°53'112.8
2017-Nov-23 12:30N 37°57' W 009°53'612.8
2017-Nov-23 12:01N 38°03' W 009°55'613.0
2017-Nov-23 11:31N 38°09' W 009°57'713.4
2017-Nov-23 11:00N 38°16' W 009°59'81005.9
2017-Nov-23 11:00N 38°24' W 010°00'2 3.8 160 / 261013.7 5.4 17.215.216.7
2017-Nov-23 10:31N 38°22' W 010°01'713.4
2017-Nov-23 10:01N 38°29' W 010°03'713.4
2017-Nov-23 09:31N 38°35' W 010°04'713.4
2017-Nov-23 09:00N 38°42' W 010°06'713.3
2017-Nov-23 08:30N 38°48' W 010°06'713.4
2017-Nov-23 08:01N 38°55' W 010°06'714.0
2017-Nov-23 07:30N 39°02' W 010°06'713.5
2017-Nov-23 07:00N 39°09' W 010°07'3212.0
2017-Nov-23 07:00N 39°12' W 010°06'4 7.8 230 / 201011.510.8 17.015.316.7
2017-Nov-23 06:30N 39°16' W 010°07'713.3
2017-Nov-23 06:00N 39°22' W 010°07'11616.5
2017-Nov-22 23:00N 41°12' W 009°18'119 6.0 180 / 351007.8 5.4 16.014.315.3
2017-Nov-22 03:00N 43°06' W 010°06'8922.3 180 / 351008.910.8 16.113.315.5
2017-Nov-21 23:00N 44°24' W 009°06'7615.3 200 / 351010.110.8 15.3 9.515.8
2017-Nov-21 18:00N 45°30' W 008°12'20818.9 200 / 261013.310.8 15.3 9.515.8
2017-Nov-21 07:00N 48°24' W 005°24'7719.3 210 / 201015.410.8 13.0 9.112.9
2017-Nov-21 03:00N 49°18' W 004°00'7819.6 250 / 251015.910.8 13.4 7.514.1
2017-Nov-20 23:00N 50°00' W 002°18'25 1.1 270 / 261016.010.8 14.0 9.114.3
2017-Nov-20 00:31N 50°18' W 001°52'812.2
2017-Nov-19 23:49N 50°15' W 002°04'311.0
2017-Nov-19 23:31N 50°11' W 002°03'611.1
2017-Nov-19 23:00N 50°07' W 001°58'611.8
2017-Nov-19 22:29N 50°01' W 001°57'612.4
2017-Nov-19 22:00N 49°58' W 002°05'714.4
2017-Nov-19 21:30N 49°56' W 002°16'714.3
2017-Nov-19 21:00N 49°54' W 002°27'1014.0
2017-Nov-19 20:17N 49°51' W 002°41'413.8
2017-Nov-19 20:00N 49°50' W 002°47'714.5
2017-Nov-19 19:30N 49°47' W 002°57'815.0
2017-Nov-19 19:00N 49°42' W 003°06'8693.1
2017-Nov-19 19:00N 49°42' W 002°54'1530.9 160 / 151024.310.8 13.0 9.114.1
2017-Nov-19 18:30N 49°38' W 003°16'916.6
2017-Nov-19 17:56N 49°32' W 003°28'916.6
2017-Nov-19 17:22N 49°26' W 003°40'616.7
2017-Nov-19 17:00N 49°23' W 003°47'1616.2
2017-Nov-19 16:00N 49°12' W 004°06'1616.8 290 / 131024.310.8 12.911.012.3
2017-Nov-19 15:03N 49°03' W 004°26'116.1
2017-Nov-19 15:00N 49°02' W 004°27'916.2
2017-Nov-19 14:28N 48°57' W 004°37'716.1
2017-Nov-19 14:00N 48°53' W 004°46'815.8
2017-Nov-19 13:30N 48°48' W 004°56'815.5
2017-Nov-19 13:00N 48°43' W 005°05'815.2
2017-Nov-19 12:30N 48°38' W 005°14'714.7
2017-Nov-19 12:00N 48°33' W 005°21'714.3
2017-Nov-19 11:30N 48°27' W 005°28'715.0
2017-Nov-19 11:01N 48°21' W 005°33'814.9
2017-Nov-19 10:27N 48°14' W 005°40'714.9
2017-Nov-19 10:00N 48°08' W 005°44'714.8
2017-Nov-19 09:30N 48°01' W 005°50'814.9
2017-Nov-19 08:59N 47°55' W 005°56'714.9
2017-Nov-19 08:30N 47°48' W 006°01'612.7
2017-Nov-19 08:00N 47°42' W 006°00'650.5 1027.110.8 12.0 7.913.8
2017-Nov-19 07:53N 47°40' W 006°08'614.8
2017-Nov-19 07:30N 47°36' W 006°12'815.0
2017-Nov-19 07:00N 47°29' W 006°18'815.6
2017-Nov-19 06:29N 47°22' W 006°24'816.6
2017-Nov-19 06:00N 47°15' W 006°30'1116.1
2017-Nov-19 05:17N 47°05' W 006°38'516.2
2017-Nov-19 05:00N 47°01' W 006°41'816.3
2017-Nov-19 04:29N 46°54' W 006°48'815.7
2017-Nov-19 04:00N 46°47' W 006°53'915.5
2017-Nov-19 03:24N 46°39' W 006°60'1315.5
2017-Nov-19 02:35N 46°28' W 007°09'4412.3
2017-Nov-18 23:00N 45°48' W 007°36'7619.0 090 / 201026.210.8 14.0 8.015.3
2017-Nov-18 19:00N 44°42' W 008°30'10414.8 100 / 321023.910.8 14.3 7.916.0
2017-Nov-18 12:00N 43°12' W 009°42'6015.0 090 / 301021.510.8 14.5 9.715.6
2017-Nov-18 08:00N 42°12' W 009°48'6216.2 090 / 171020.510.8 14.511.716.4
2017-Nov-18 04:09N 41°10' W 009°50'317.8
2017-Nov-18 04:00N 41°07' W 009°50'71745.6
2017-Nov-18 04:00N 41°00' W 009°48'2113.4 050 / 81019.910.8 15.012.817.1
2017-Nov-18 02:24N 40°39' W 009°51'2318.3
2017-Nov-18 01:10N 40°16' W 009°51'418.4
2017-Nov-18 00:57N 40°12' W 009°51'1717.5
2017-Nov-17 23:58N 39°55' W 009°52'1215.9
2017-Nov-17 23:11N 39°43' W 009°52'630.4
2017-Nov-17 23:00N 39°48' W 009°48'1184.4 1020.7 5.4 15.512.814.6
2017-Nov-17 22:52N 39°37' W 009°52'915.7
2017-Nov-17 22:17N 39°28' W 009°51'515.4
2017-Nov-17 22:00N 39°24' W 009°50'815.8
2017-Nov-17 21:30N 39°16' W 009°48'815.8
2017-Nov-17 21:00N 39°09' W 009°47'815.6
2017-Nov-17 20:30N 39°01' W 009°45'815.9
2017-Nov-17 20:00N 38°53' W 009°43'815.6
2017-Nov-17 19:30N 38°45' W 009°42'815.1
2017-Nov-17 19:00N 38°38' W 009°40'715.0
2017-Nov-17 18:31N 38°37' W 009°31'714.1
2017-Nov-17 18:00N 38°38' W 009°22'815.1
2017-Nov-17 17:30N 38°41' W 009°13'5 9.7
2017-Nov-17 17:01N 38°42' W 009°07'0 0.6
2017-Nov-17 16:30N 38°43' W 009°07'0 0.0
2017-Nov-17 16:00N 38°43' W 009°07'0 0.0
2017-Nov-17 15:30N 38°43' W 009°07'0 0.0
2017-Nov-17 14:57N 38°43' W 009°07'0 0.0
2017-Nov-17 14:30N 38°43' W 009°07'0 0.0
2017-Nov-17 14:00N 38°43' W 009°07'0 0.0
2017-Nov-17 13:30N 38°43' W 009°07'0 0.0
2017-Nov-17 13:00N 38°43' W 009°07'0 0.0
2017-Nov-17 12:30N 38°43' W 009°07'0 0.0
2017-Nov-17 12:00N 38°43' W 009°07'0 0.0
2017-Nov-17 11:30N 38°43' W 009°07'0 0.0
2017-Nov-17 11:00N 38°43' W 009°07'0 0.0
2017-Nov-17 10:30N 38°43' W 009°07'0 0.0
2017-Nov-17 10:00N 38°43' W 009°07'0 0.0
2017-Nov-17 09:30N 38°43' W 009°07'0 0.0
2017-Nov-17 09:00N 38°43' W 009°07'0 0.0
2017-Nov-17 08:30N 38°43' W 009°07'0 0.0
2017-Nov-17 07:57N 38°43' W 009°07'0 0.9
2017-Nov-17 07:30N 38°42' W 009°08'5 9.4
2017-Nov-17 07:00N 38°41' W 009°13'4 8.4
2017-Nov-17 06:30N 38°40' W 009°19'4 8.4
2017-Nov-17 06:01N 38°37' W 009°22'611.7
2017-Nov-17 05:30N 38°32' W 009°26'612.0
2017-Nov-17 05:00N 38°26' W 009°29'713.5
2017-Nov-17 04:30N 38°20' W 009°31'714.0
2017-Nov-17 04:00N 38°13' W 009°34'4223.3
2017-Nov-17 04:00N 38°12' W 009°30'815.8 050 / 101019.310.8 15.9 9.617.1
2017-Nov-17 03:30N 38°07' W 009°37'713.8
2017-Nov-17 03:00N 38°00' W 009°40'713.8
2017-Nov-17 02:30N 37°54' W 009°43'713.8
2017-Nov-17 02:00N 37°47' W 009°45'815.7
2017-Nov-17 01:30N 37°40' W 009°49'917.4
2017-Nov-17 01:01N 37°32' W 009°52'917.6
2017-Nov-17 00:31N 37°23' W 009°56'917.5
2017-Nov-17 00:00N 37°15' W 009°59'9 8.7
2017-Nov-16 23:00N 37°06' W 010°00'8220.4 010 / 151021.110.8 17.010.519.0
2017-Nov-16 19:00N 35°48' W 010°30'5217.3 070 / 151020.610.8 18.013.619.9
2017-Nov-16 16:00N 35°00' W 010°54'8821.9 020 / 121017.810.8 19.014.720.9
2017-Nov-16 12:00N 33°36' W 011°24'5814.4 010 / 61020.310.8 20.013.020.8
2017-Nov-16 08:00N 32°42' W 011°48'7117.7 030 / 131019.610.8 19.013.821.2
2017-Nov-16 04:00N 31°36' W 012°18'7515.0 110 / 121016.810.8 19.513.421.0
2017-Nov-15 23:00N 30°24' W 012°42'7620.4 030 / 161018.6 19.511.420.2
2017-Nov-15 19:14N 29°13' W 013°14'729.2
2017-Nov-15 19:00N 29°06' W 013°12'6512.7 360 / 141017.610.8 20.013.021.7
2017-Nov-15 18:59N 29°09' W 013°17'817.6
2017-Nov-15 18:30N 29°03' W 013°24'915.9
2017-Nov-15 17:58N 28°57' W 013°31'1 0.1
2017-Nov-15 10:17N 28°58' W 013°32'0 0.0
2017-Nov-15 07:25N 28°58' W 013°32'1 1.6
2017-Nov-15 07:00N 28°57' W 013°32'5 9.7
2017-Nov-15 06:28N 28°53' W 013°36'713.3
2017-Nov-15 05:58N 28°50' W 013°42'612.3
2017-Nov-15 05:30N 28°48' W 013°49'1112.8
2017-Nov-15 04:37N 28°50' W 014°01'1710.3
2017-Nov-15 03:00N 28°42' W 014°18'3314.8 040 / 101017.110.8 20.513.622.1
2017-Nov-15 00:46N 28°43' W 014°56'312.2
2017-Nov-15 00:30N 28°42' W 014°59'612.3
2017-Nov-15 00:01N 28°41' W 015°06'612.5
2017-Nov-14 23:30N 28°40' W 015°13'612.4
2017-Nov-14 23:00N 28°39' W 015°20'8955.8
2017-Nov-14 23:00N 28°36' W 015°12'1327.6 050 / 201016.510.8 20.513.622.1
2017-Nov-14 22:30N 28°38' W 015°27'612.5
2017-Nov-14 22:00N 28°37' W 015°34'  

Dump ship's entire track history